Time;durP1;ratioP1;P1;durP2;ratioP2;P2;SDS_P1;SDS_P2;PMS_P1;PMS_P2;Temp;Humidity;BMP_temperature;BMP_pressure;BME280_temperature;BME280_humidity;BME280_pressure;Samples;Min_cycle;Max_cycle;Signal;HPM_P1;HPM_P2
2022/10/17 00:00:34;;;;;;;3.30;3.00;;;14.80;99.90;;;;;;4992013;28;20542;-69
2022/10/17 00:03:01;;;;;;;6.80;2.93;;;14.70;99.90;;;;;;4998702;28;20226;-69
2022/10/17 00:05:26;;;;;;;3.40;3.03;;;14.80;99.90;;;;;;4990044;28;20234;-69
2022/10/17 00:07:52;;;;;;;4.03;3.63;;;14.70;99.90;;;;;;4989917;28;20442;-69
2022/10/17 00:10:19;;;;;;;3.47;3.17;;;14.70;99.90;;;;;;4990502;28;20183;-69
2022/10/17 00:12:44;;;;;;;3.80;3.20;;;14.80;99.90;;;;;;4991689;28;20470;-69
2022/10/17 00:15:14;;;;;;;4.00;3.70;;;14.80;99.90;;;;;;4991380;28;20995;-69
2022/10/17 00:17:40;;;;;;;4.67;3.20;;;14.70;99.90;;;;;;4989611;28;20176;-69
2022/10/17 00:20:07;;;;;;;3.90;2.97;;;14.70;99.90;;;;;;4990212;28;20434;-69
2022/10/17 00:22:32;;;;;;;3.70;3.30;;;14.70;99.90;;;;;;4990632;28;20451;-69
2022/10/17 00:24:58;;;;;;;3.73;3.33;;;14.70;99.90;;;;;;4989145;28;20925;-69
2022/10/17 00:27:23;;;;;;;4.00;3.30;;;14.70;99.90;;;;;;4990482;28;20242;-69
2022/10/17 00:29:50;;;;;;;3.60;2.93;;;14.70;99.90;;;;;;4983795;28;20191;-69
2022/10/17 00:32:16;;;;;;;2.87;2.67;;;14.70;99.90;;;;;;4990839;28;20688;-69
2022/10/17 00:34:41;;;;;;;7.73;4.30;;;14.70;99.90;;;;;;4983619;28;20467;-69
2022/10/17 00:37:07;;;;;;;6.10;3.40;;;14.70;99.90;;;;;;4991318;28;20450;-69
2022/10/17 00:39:32;;;;;;;6.13;3.23;;;14.60;99.90;;;;;;4990802;28;20179;-69
2022/10/17 00:41:58;;;;;;;4.73;4.27;;;14.50;99.90;;;;;;4991258;28;20179;-69
2022/10/17 00:44:29;;;;;;;3.40;3.20;;;14.50;99.90;;;;;;4989380;28;20187;-69
2022/10/17 00:46:57;;;;;;;3.10;2.80;;;14.50;99.90;;;;;;4989315;28;20266;-70
2022/10/17 00:49:24;;;;;;;3.50;3.07;;;14.50;99.90;;;;;;4990755;28;20450;-70
2022/10/17 00:51:57;;;;;;;3.43;2.90;;;14.40;99.90;;;;;;4989531;28;20443;-69
2022/10/17 00:54:26;;;;;;;6.67;2.83;;;14.40;99.90;;;;;;4990072;28;20594;-69
2022/10/17 00:56:52;;;;;;;3.60;3.30;;;14.40;99.90;;;;;;4990291;28;20796;-69
2022/10/17 00:59:20;;;;;;;4.40;4.00;;;14.40;99.90;;;;;;4990690;28;20441;-69
2022/10/17 01:02:05;;;;;;;3.90;3.57;;;14.50;99.90;;;;;;4990803;28;20535;-70
2022/10/17 01:04:31;;;;;;;7.40;3.27;;;14.50;99.90;;;;;;4990372;28;20789;-69
2022/10/17 01:06:57;;;;;;;3.93;3.10;;;14.50;99.90;;;;;;4990127;28;20446;-69
2022/10/17 01:09:23;;;;;;;5.33;4.10;;;14.50;99.90;;;;;;4986615;28;20813;-69
2022/10/17 01:11:58;;;;;;;9.90;4.40;;;14.50;99.90;;;;;;4990993;28;20192;-69
2022/10/17 01:14:49;;;;;;;6.00;3.73;;;14.50;99.90;;;;;;5003333;28;20811;-69
2022/10/17 01:17:47;;;;;;;3.63;3.37;;;14.50;99.90;;;;;;4994016;28;20442;-69
2022/10/17 01:20:27;;;;;;;3.20;2.90;;;14.50;99.90;;;;;;4996134;28;20982;-69
2022/10/17 01:23:10;;;;;;;4.73;3.30;;;14.40;99.90;;;;;;5000732;28;20520;-69
2022/10/17 01:25:54;;;;;;;7.43;3.43;;;14.30;99.90;;;;;;4993382;28;20442;-69
2022/10/17 01:28:51;;;;;;;4.47;3.67;;;14.30;99.90;;;;;;4991991;28;20438;-69
2022/10/17 01:31:24;;;;;;;5.07;3.87;;;14.20;99.90;;;;;;4972038;28;20438;-69
2022/10/17 01:34:14;;;;;;;5.90;3.37;;;14.20;99.90;;;;;;4993857;28;21002;-69
2022/10/17 01:36:55;;;;;;;5.47;3.20;;;14.10;99.90;;;;;;4993964;28;20435;-69
2022/10/17 01:39:42;;;;;;;4.13;3.77;;;14.10;99.90;;;;;;4994350;28;20461;-69
2022/10/17 01:42:43;;;;;;;4.53;4.13;;;14.10;99.90;;;;;;4993063;28;20422;-69
2022/10/17 01:45:13;;;;;;;6.00;3.27;;;14.10;99.90;;;;;;4986509;28;20466;-69
2022/10/17 01:47:41;;;;;;;7.73;6.63;;;14.10;99.90;;;;;;4992977;28;20466;-69
2022/10/17 01:50:38;;;;;;;9.50;7.90;;;14.00;99.90;;;;;;4992947;28;20794;-69
2022/10/17 01:53:23;;;;;;;3.90;3.50;;;14.00;99.90;;;;;;4985892;28;20541;-69
2022/10/17 01:55:50;;;;;;;3.73;3.43;;;14.10;99.90;;;;;;4992890;28;20944;-69
2022/10/17 01:58:28;;;;;;;3.60;3.30;;;14.10;99.90;;;;;;4993166;28;20438;-69
2022/10/17 02:00:58;;;;;;;4.03;3.50;;;14.20;99.90;;;;;;4992284;28;20860;-69
2022/10/17 02:03:26;;;;;;;4.50;3.17;;;14.10;99.90;;;;;;4993720;28;20826;-69
2022/10/17 02:05:52;;;;;;;4.10;3.80;;;14.00;99.90;;;;;;4993511;28;20851;-69
2022/10/17 02:08:38;;;;;;;10.40;9.43;;;14.00;99.90;;;;;;4992061;28;20439;-69
2022/10/17 02:11:22;;;;;;;6.07;4.93;;;14.00;99.90;;;;;;4992835;28;20602;-69
2022/10/17 02:14:06;;;;;;;7.43;3.73;;;14.00;99.90;;;;;;4990991;28;20826;-69
2022/10/17 02:16:41;;;;;;;4.40;3.70;;;14.00;99.90;;;;;;4990364;28;20431;-69
2022/10/17 02:19:22;;;;;;;4.17;3.57;;;14.00;99.90;;;;;;4991967;28;20465;-69
2022/10/17 02:22:04;;;;;;;3.80;3.50;;;13.90;99.90;;;;;;4995743;28;20534;-69
2022/10/17 02:24:50;;;;;;;3.63;3.00;;;13.90;99.90;;;;;;4995521;28;20466;-69
2022/10/17 02:27:42;;;;;;;10.97;8.10;;;13.90;99.90;;;;;;4992918;28;20457;-69
2022/10/17 02:30:28;;;;;;;12.73;8.97;;;13.90;99.90;;;;;;4992256;28;20529;-69
2022/10/17 02:33:22;;;;;;;11.63;4.00;;;13.90;99.90;;;;;;4992204;28;20462;-69
2022/10/17 02:35:52;;;;;;;4.73;3.70;;;13.90;99.90;;;;;;4991893;28;20439;-69
2022/10/17 02:38:19;;;;;;;3.60;3.30;;;13.80;99.90;;;;;;4992100;28;20963;-69
2022/10/17 02:40:46;;;;;;;7.33;3.83;;;13.80;99.90;;;;;;4991909;28;20959;-69
2022/10/17 02:43:13;;;;;;;4.10;3.60;;;13.80;99.90;;;;;;4986421;28;20891;-69
2022/10/17 02:45:39;;;;;;;4.10;3.77;;;13.80;99.90;;;;;;4992421;28;20882;-69
2022/10/17 02:48:11;;;;;;;4.00;3.50;;;13.80;99.90;;;;;;4991549;28;20439;-69
2022/10/17 02:51:03;;;;;;;4.50;4.10;;;13.80;99.90;;;;;;4992968;28;20438;-69
2022/10/17 02:53:42;;;;;;;8.93;4.20;;;13.80;99.90;;;;;;4996916;28;20454;-69
2022/10/17 02:56:20;;;;;;;3.80;3.50;;;13.70;99.90;;;;;;4991972;28;20441;-69
2022/10/17 02:58:53;;;;;;;3.87;3.57;;;13.70;99.90;;;;;;4991674;28;20470;-69
2022/10/17 03:01:19;;;;;;;9.00;3.70;;;13.60;99.90;;;;;;4991093;28;20552;-69
2022/10/17 03:03:45;;;;;;;14.00;12.50;;;13.60;99.90;;;;;;4991566;28;20861;-69
2022/10/17 03:06:11;;;;;;;6.70;5.63;;;13.60;99.90;;;;;;4998182;28;20448;-69
2022/10/17 03:08:36;;;;;;;7.03;5.27;;;13.60;99.90;;;;;;4997302;28;20446;-69
2022/10/17 03:11:02;;;;;;;9.50;4.27;;;13.60;99.90;;;;;;4990692;28;20239;-69
2022/10/17 03:13:28;;;;;;;4.93;3.23;;;13.50;99.90;;;;;;4991417;28;20459;-69
2022/10/17 03:15:56;;;;;;;5.83;5.33;;;13.50;99.90;;;;;;4992948;28;20270;-69
2022/10/17 03:18:21;;;;;;;4.77;3.73;;;13.50;99.90;;;;;;4990942;28;20454;-69
2022/10/17 03:20:47;;;;;;;3.87;3.47;;;13.50;99.90;;;;;;4990460;28;20846;-69
2022/10/17 03:23:12;;;;;;;7.00;3.80;;;13.50;99.90;;;;;;4990523;28;20699;-69
2022/10/17 03:25:38;;;;;;;3.93;3.50;;;13.40;99.90;;;;;;4990445;28;20740;-69
2022/10/17 03:28:04;;;;;;;6.50;3.60;;;13.40;99.90;;;;;;4991909;28;20207;-69
2022/10/17 03:30:30;;;;;;;5.80;4.43;;;13.40;99.90;;;;;;4990462;28;20179;-69
2022/10/17 03:32:59;;;;;;;4.87;3.70;;;13.40;99.90;;;;;;4991449;28;20462;-69
2022/10/17 03:35:26;;;;;;;5.07;4.00;;;13.50;99.90;;;;;;4992580;28;20466;-69
2022/10/17 03:37:51;;;;;;;3.93;3.23;;;13.50;99.90;;;;;;4997629;28;20436;-69
2022/10/17 03:40:17;;;;;;;5.10;4.30;;;13.60;99.90;;;;;;4992233;28;20521;-69
2022/10/17 03:42:43;;;;;;;9.50;4.43;;;13.60;99.90;;;;;;4993117;28;20615;-69
2022/10/17 03:45:08;;;;;;;4.40;3.53;;;13.60;99.90;;;;;;4991066;28;20208;-69
2022/10/17 03:47:34;;;;;;;4.10;3.40;;;13.50;99.90;;;;;;4989665;28;20549;-69
2022/10/17 03:49:59;;;;;;;6.47;5.87;;;13.50;99.90;;;;;;4990285;28;20203;-69
2022/10/17 03:52:25;;;;;;;6.40;5.80;;;13.50;99.90;;;;;;4990945;28;20290;-69
2022/10/17 03:54:51;;;;;;;6.57;4.80;;;13.50;99.90;;;;;;4989725;28;20270;-69
2022/10/17 03:57:17;;;;;;;7.80;4.40;;;13.40;99.90;;;;;;4991508;28;20190;-69
2022/10/17 03:59:43;;;;;;;4.33;3.50;;;13.40;99.90;;;;;;4990132;28;20561;-69
2022/10/17 04:02:09;;;;;;;9.50;4.07;;;13.30;99.90;;;;;;4990218;28;20441;-69
2022/10/17 04:04:34;;;;;;;4.40;4.10;;;13.30;99.90;;;;;;4990895;28;20195;-69
2022/10/17 04:07:00;;;;;;;8.23;4.20;;;13.20;99.90;;;;;;4991264;28;20442;-69
2022/10/17 04:09:26;;;;;;;4.13;3.73;;;13.20;99.90;;;;;;4990889;28;20540;-69
2022/10/17 04:11:51;;;;;;;4.83;4.10;;;13.20;99.90;;;;;;4990925;28;20263;-69
2022/10/17 04:14:17;;;;;;;6.23;4.10;;;13.20;99.90;;;;;;4991288;28;20207;-69
2022/10/17 04:16:42;;;;;;;7.37;3.20;;;12.80;99.90;;;;;;4989802;28;20186;-69
2022/10/17 04:19:11;;;;;;;6.00;3.83;;;13.20;99.90;;;;;;4989890;28;20267;-69
2022/10/17 04:21:37;;;;;;;6.30;3.80;;;13.20;99.90;;;;;;4989423;28;20602;-69
2022/10/17 04:24:03;;;;;;;4.17;3.77;;;13.20;99.90;;;;;;4990147;28;20549;-69
2022/10/17 04:26:29;;;;;;;3.60;3.30;;;13.10;99.90;;;;;;4993156;28;20881;-69
2022/10/17 04:28:55;;;;;;;4.27;3.87;;;13.10;99.90;;;;;;4993305;28;20444;-69
2022/10/17 04:31:20;;;;;;;10.27;7.67;;;13.10;99.90;;;;;;4996305;28;20258;-69
2022/10/17 04:33:48;;;;;;;8.20;7.37;;;13.10;99.90;;;;;;5001428;28;20535;-69
2022/10/17 04:36:17;;;;;;;6.33;5.40;;;13.00;99.90;;;;;;4993728;28;20190;-69
2022/10/17 04:38:42;;;;;;;6.40;4.17;;;13.00;99.90;;;;;;4999597;28;20981;-69
2022/10/17 04:41:11;;;;;;;6.03;4.13;;;13.10;99.90;;;;;;4990308;28;20435;-69
2022/10/17 04:43:38;;;;;;;5.33;3.80;;;13.10;99.90;;;;;;4991976;28;20210;-69
2022/10/17 04:46:07;;;;;;;5.93;3.93;;;13.10;99.90;;;;;;4996980;28;20459;-69
2022/10/17 04:48:33;;;;;;;10.40;6.17;;;13.00;99.90;;;;;;4989217;28;20957;-69
2022/10/17 04:51:06;;;;;;;4.63;3.30;;;13.00;99.90;;;;;;4989971;28;20466;-69
2022/10/17 04:53:33;;;;;;;5.33;3.03;;;13.00;99.90;;;;;;4990723;28;20199;-68
2022/10/17 04:55:59;;;;;;;3.83;3.53;;;13.00;99.90;;;;;;4999538;28;20500;-71
2022/10/17 04:58:27;;;;;;;6.30;3.53;;;12.90;99.90;;;;;;4999169;28;20873;-69
2022/10/17 05:00:52;;;;;;;6.40;3.30;;;12.90;99.90;;;;;;5004311;28;20525;-68
2022/10/17 05:03:18;;;;;;;4.57;3.70;;;13.00;99.90;;;;;;4997192;28;21114;-69
2022/10/17 05:05:43;;;;;;;3.93;3.63;;;13.00;99.90;;;;;;4997526;28;20265;-68
2022/10/17 05:08:10;;;;;;;4.10;3.80;;;13.00;99.90;;;;;;4994728;28;20213;-68
2022/10/17 05:10:40;;;;;;;6.43;4.47;;;13.10;99.90;;;;;;4993966;28;20312;-67
2022/10/17 05:13:07;;;;;;;5.17;3.67;;;13.10;99.90;;;;;;4995530;28;20458;-67
2022/10/17 05:15:33;;;;;;;8.93;3.50;;;13.20;99.90;;;;;;5000771;28;20569;-67
2022/10/17 05:17:58;;;;;;;3.70;3.40;;;13.20;99.90;;;;;;4997877;28;20916;-68
2022/10/17 05:20:24;;;;;;;5.23;3.57;;;13.20;99.90;;;;;;4994780;28;20437;-68
2022/10/17 05:22:50;;;;;;;3.13;2.87;;;13.30;99.90;;;;;;4993023;28;20334;-69
2022/10/17 05:25:15;;;;;;;4.07;3.67;;;13.20;99.90;;;;;;4994021;28;20261;-69
2022/10/17 05:27:41;;;;;;;4.57;4.17;;;13.20;99.90;;;;;;4995725;28;20171;-69
2022/10/17 05:30:07;;;;;;;4.83;3.47;;;13.10;99.90;;;;;;4995295;28;20750;-68
2022/10/17 05:32:33;;;;;;;4.53;3.87;;;13.10;99.90;;;;;;4995528;28;20196;-68
2022/10/17 05:34:58;;;;;;;3.80;3.43;;;13.10;99.90;;;;;;4995394;28;20494;-68
2022/10/17 05:37:24;;;;;;;7.77;3.53;;;13.10;99.90;;;;;;4995513;28;20199;-68
2022/10/17 05:39:49;;;;;;;4.33;3.93;;;13.20;99.90;;;;;;4994704;28;20226;-68
2022/10/17 05:42:15;;;;;;;6.53;4.33;;;13.20;99.90;;;;;;4995301;28;20183;-69
2022/10/17 05:44:41;;;;;;;5.23;4.03;;;13.20;99.90;;;;;;4995205;28;20327;-68
2022/10/17 05:47:07;;;;;;;5.00;3.50;;;13.30;99.90;;;;;;4995384;28;20168;-69
2022/10/17 05:49:33;;;;;;;4.30;3.90;;;13.40;99.90;;;;;;4994988;28;20226;-69
2022/10/17 05:51:59;;;;;;;4.57;3.77;;;13.40;99.90;;;;;;4995095;28;20423;-69
2022/10/17 05:54:25;;;;;;;6.00;5.33;;;13.40;99.90;;;;;;4995215;28;20433;-69
2022/10/17 05:56:51;;;;;;;19.40;12.93;;;13.30;99.90;;;;;;4995231;28;20179;-69
2022/10/17 05:59:17;;;;;;;8.10;6.30;;;13.30;99.90;;;;;;4995021;28;20552;-69
2022/10/17 06:01:42;;;;;;;5.30;4.80;;;13.20;99.90;;;;;;4995120;28;20427;-68
2022/10/17 06:04:08;;;;;;;7.33;4.10;;;13.10;99.90;;;;;;4994897;28;20269;-69
2022/10/17 06:06:36;;;;;;;4.80;4.30;;;13.10;99.90;;;;;;4994959;28;20176;-68
2022/10/17 06:09:02;;;;;;;6.77;4.60;;;13.10;99.90;;;;;;4994632;28;20174;-69
2022/10/17 06:11:28;;;;;;;12.87;7.90;;;13.10;99.90;;;;;;4993982;28;20718;-70
2022/10/17 06:13:53;;;;;;;6.80;4.90;;;13.10;99.90;;;;;;4994586;28;20979;-69
2022/10/17 06:16:19;;;;;;;5.40;4.70;;;13.10;99.90;;;;;;4994758;28;20178;-69
2022/10/17 06:18:44;;;;;;;8.63;4.67;;;13.10;99.90;;;;;;4994506;28;20172;-69
2022/10/17 06:21:13;;;;;;;8.53;5.27;;;13.10;99.90;;;;;;4994700;28;20175;-68
2022/10/17 06:23:39;;;;;;;7.70;4.93;;;13.20;99.90;;;;;;4994593;28;20191;-69
2022/10/17 06:26:06;;;;;;;6.03;5.43;;;13.30;99.90;;;;;;4994541;28;20470;-69
2022/10/17 06:28:32;;;;;;;5.30;4.47;;;13.50;99.90;;;;;;4994252;28;20259;-69
2022/10/17 06:30:58;;;;;;;6.60;4.83;;;13.60;99.90;;;;;;4994667;28;20497;-69
2022/10/17 06:33:24;;;;;;;6.30;4.37;;;13.80;99.90;;;;;;4994564;28;20877;-69
2022/10/17 06:35:51;;;;;;;9.60;4.93;;;14.10;99.90;;;;;;4994538;28;20179;-69
2022/10/17 06:38:17;;;;;;;7.33;5.40;;;14.20;99.90;;;;;;4994159;28;20203;-68
2022/10/17 06:40:42;;;;;;;5.30;4.60;;;14.40;99.90;;;;;;4994419;28;20818;-68
2022/10/17 06:43:08;;;;;;;6.07;4.37;;;14.60;99.90;;;;;;4994138;28;20290;-69
2022/10/17 06:45:33;;;;;;;7.97;5.43;;;14.80;99.90;;;;;;4994230;28;20207;-69
2022/10/17 06:48:01;;;;;;;6.03;4.60;;;14.90;99.90;;;;;;4994428;28;20550;-68
2022/10/17 06:50:26;;;;;;;7.00;5.70;;;14.90;99.90;;;;;;4994029;28;20179;-68
2022/10/17 06:52:52;;;;;;;6.63;4.13;;;15.00;99.90;;;;;;4994076;28;20456;-69
2022/10/17 06:55:17;;;;;;;8.83;4.83;;;15.30;99.90;;;;;;4994047;28;20186;-69
2022/10/17 06:57:43;;;;;;;9.93;7.63;;;15.40;99.90;;;;;;4993994;28;20606;-69
2022/10/17 07:00:09;;;;;;;6.00;5.37;;;15.70;99.90;;;;;;4993754;28;20643;-69
2022/10/17 07:02:35;;;;;;;8.67;4.47;;;15.80;99.90;;;;;;4993398;28;20685;-69
2022/10/17 07:05:00;;;;;;;8.50;5.63;;;16.00;99.90;;;;;;4965558;28;20493;-69
2022/10/17 07:07:28;;;;;;;6.40;5.77;;;16.20;99.90;;;;;;4975475;28;20221;-68
2022/10/17 07:09:54;;;;;;;8.50;4.87;;;16.50;99.90;;;;;;4991991;28;20632;-69
2022/10/17 07:12:20;;;;;;;7.20;3.97;;;16.70;99.90;;;;;;4989900;28;20466;-69
2022/10/17 07:14:46;;;;;;;7.90;5.23;;;17.00;99.90;;;;;;4989897;28;20191;-69
2022/10/17 07:17:12;;;;;;;12.43;5.50;;;17.20;99.90;;;;;;4993451;28;20193;-69
2022/10/17 07:19:37;;;;;;;7.60;5.40;;;17.50;99.90;;;;;;4992321;28;20510;-68
2022/10/17 07:22:03;;;;;;;6.70;4.97;;;17.70;99.90;;;;;;4993046;28;20976;-68
2022/10/17 07:24:28;;;;;;;6.13;5.63;;;18.10;99.90;;;;;;4989752;28;20723;-69
2022/10/17 07:26:54;;;;;;;5.43;4.50;;;18.20;99.90;;;;;;4993122;28;20213;-68
2022/10/17 07:29:19;;;;;;;5.30;4.87;;;18.60;99.90;;;;;;4993178;28;20172;-68
2022/10/17 07:31:47;;;;;;;8.30;6.27;;;18.90;99.90;;;;;;4992283;28;20546;-68
2022/10/17 07:34:13;;;;;;;7.00;6.30;;;19.20;99.90;;;;;;4989843;28;20736;-68
2022/10/17 07:36:38;;;;;;;5.40;4.67;;;19.40;99.90;;;;;;4992719;28;20422;-68
2022/10/17 07:39:04;;;;;;;9.87;6.90;;;19.70;99.90;;;;;;4990866;28;20183;-69
2022/10/17 07:41:29;;;;;;;11.37;6.57;;;20.00;99.90;;;;;;4992035;28;20183;-68
2022/10/17 07:43:55;;;;;;;5.40;4.47;;;20.30;99.90;;;;;;4988511;28;20203;-68
2022/10/17 07:46:21;;;;;;;7.40;4.43;;;20.50;99.90;;;;;;4992733;28;20190;-69
2022/10/17 07:48:46;;;;;;;4.70;3.50;;;20.70;99.90;;;;;;4992499;28;20176;-68
2022/10/17 07:51:12;;;;;;;5.90;4.37;;;21.10;99.90;;;;;;4993198;28;20729;-69
2022/10/17 07:53:38;;;;;;;5.20;4.70;;;21.60;99.90;;;;;;4988736;28;20289;-69
2022/10/17 07:56:06;;;;;;;6.63;3.73;;;21.90;99.90;;;;;;4991064;28;20175;-69
2022/10/17 07:58:31;;;;;;;7.27;4.03;;;22.30;99.90;;;;;;4985710;28;20432;-69
2022/10/17 08:01:03;;;;;;;5.30;4.33;;;22.70;99.90;;;;;;4972861;28;20441;-68
2022/10/17 08:03:28;;;;;;;6.80;5.40;;;23.20;99.90;;;;;;4981162;28;20223;-68
2022/10/17 08:05:58;;;;;;;5.30;3.90;;;23.50;99.90;;;;;;4992128;28;20852;-69
2022/10/17 08:08:24;;;;;;;5.00;3.27;;;23.40;99.90;;;;;;4990896;28;20598;-70
2022/10/17 08:10:49;;;;;;;3.30;2.57;;;23.50;99.90;;;;;;4986642;28;20430;-70
2022/10/17 08:13:15;;;;;;;3.50;2.53;;;23.20;99.90;;;;;;5018254;28;20685;-69
2022/10/17 08:15:41;;;;;;;5.53;2.57;;;22.60;99.90;;;;;;4990170;28;20179;-69
2022/10/17 08:18:06;;;;;;;2.67;2.07;;;22.40;99.90;;;;;;4991297;28;20218;-69
2022/10/17 08:20:32;;;;;;;3.03;2.80;;;22.50;99.90;;;;;;5002930;28;20426;-69
2022/10/17 08:22:58;;;;;;;2.33;2.03;;;22.70;99.90;;;;;;4991011;28;20208;-69
2022/10/17 08:25:23;;;;;;;2.73;2.20;;;23.20;99.90;;;;;;4987420;28;20758;-69
2022/10/17 08:27:49;;;;;;;4.23;2.50;;;24.10;99.90;;;;;;4987982;28;20195;-69
2022/10/17 08:30:15;;;;;;;5.60;2.53;;;24.50;99.90;;;;;;4972568;28;20650;-68
2022/10/17 08:32:41;;;;;;;4.47;3.30;;;25.00;99.90;;;;;;4986758;28;20191;-69
2022/10/17 08:35:07;;;;;;;3.50;3.20;;;25.60;99.90;;;;;;4984311;28;20517;-69
2022/10/17 08:37:33;;;;;;;2.90;2.70;;;26.20;99.90;;;;;;4983210;28;20426;-70
2022/10/17 08:39:59;;;;;;;2.63;2.40;;;26.10;99.90;;;;;;4995618;28;20171;-70
2022/10/17 08:42:56;;;;;;;7.00;2.53;;;25.90;99.90;;;;;;4989288;28;20199;-69
2022/10/17 08:45:47;;;;;;;4.77;2.50;;;26.00;99.90;;;;;;4991127;28;20203;-69
2022/10/17 08:48:17;;;;;;;4.40;2.60;;;25.90;99.90;;;;;;4995286;28;20421;-69
2022/10/17 08:51:10;;;;;;;2.73;2.53;;;25.60;99.90;;;;;;4996333;28;20786;-69
2022/10/17 08:53:46;;;;;;;2.97;2.77;;;26.20;99.90;;;;;;4990394;28;20460;-67
2022/10/17 08:56:36;;;;;;;4.27;2.57;;;26.80;99.90;;;;;;4982762;28;20517;-69
2022/10/17 08:59:04;;;;;;;3.77;3.47;;;27.50;96.90;;;;;;4976490;28;20465;-69
2022/10/17 09:01:45;;;;;;;5.03;2.97;;;27.50;96.20;;;;;;4975756;28;20423;-69
2022/10/17 09:04:57;;;;;;;4.40;2.30;;;27.30;96.10;;;;;;4981253;28;20878;-69
2022/10/17 09:07:47;;;;;;;3.17;2.17;;;26.90;95.50;;;;;;4978111;28;21006;-69
2022/10/17 09:10:54;;;;;;;5.77;2.20;;;26.20;96.60;;;;;;4976326;28;20407;-69
2022/10/17 09:13:40;;;;;;;4.43;2.73;;;26.20;98.10;;;;;;4981836;28;20489;-70
2022/10/17 09:16:18;;;;;;;2.80;2.60;;;26.70;96.60;;;;;;4995544;28;20425;-69
2022/10/17 09:18:57;;;;;;;3.60;2.67;;;26.70;96.40;;;;;;4995638;28;20422;-69
2022/10/17 09:21:34;;;;;;;3.83;3.10;;;26.90;95.20;;;;;;4985722;28;20423;-69
2022/10/17 09:24:03;;;;;;;2.53;2.33;;;26.50;95.50;;;;;;4979440;28;20442;-69
2022/10/17 09:26:29;;;;;;;6.53;2.93;;;26.70;96.00;;;;;;4992207;28;20505;-70
2022/10/17 09:28:58;;;;;;;8.23;2.90;;;27.60;95.20;;;;;;4994159;28;20506;-69
2022/10/17 09:31:28;;;;;;;3.03;2.73;;;27.60;93.80;;;;;;4995604;28;20410;-69
2022/10/17 09:33:58;;;;;;;3.00;2.70;;;27.90;93.60;;;;;;4977632;28;20492;-69
2022/10/17 09:36:34;;;;;;;3.00;2.60;;;28.10;93.20;;;;;;4995519;28;20429;-69
2022/10/17 09:39:05;;;;;;;3.50;3.20;;;27.90;91.60;;;;;;4994510;28;20477;-69
2022/10/17 09:41:47;;;;;;;7.17;3.20;;;27.90;93.60;;;;;;4978272;28;20431;-69
2022/10/17 09:44:19;;;;;;;4.03;2.63;;;27.90;92.40;;;;;;4980635;28;20437;-69
2022/10/17 09:47:06;;;;;;;2.70;2.50;;;27.80;92.50;;;;;;4985596;28;20420;-69
2022/10/17 09:49:43;;;;;;;4.50;2.80;;;28.50;91.20;;;;;;4975512;28;20411;-69
2022/10/17 09:52:32;;;;;;;2.70;2.60;;;28.00;90.90;;;;;;4978018;28;20418;-69
2022/10/17 09:55:22;;;;;;;3.83;2.63;;;27.80;91.50;;;;;;4991767;28;20453;-69
2022/10/17 09:58:00;;;;;;;3.40;2.70;;;28.20;90.50;;;;;;4989363;28;20431;-69
2022/10/17 10:00:30;;;;;;;7.00;2.77;;;28.40;89.20;;;;;;4975354;28;20411;-69
2022/10/17 10:03:21;;;;;;;4.07;3.07;;;28.30;88.20;;;;;;4983967;28;20442;-69
2022/10/17 10:06:05;;;;;;;5.27;2.80;;;28.70;87.40;;;;;;4993388;28;20987;-69
2022/10/17 10:08:35;;;;;;;4.00;3.17;;;28.10;87.00;;;;;;4990028;28;20415;-68
2022/10/17 10:11:04;;;;;;;3.30;3.00;;;28.00;87.60;;;;;;4975364;28;20494;-69
2022/10/17 10:13:32;;;;;;;3.73;2.87;;;28.30;87.10;;;;;;4977735;28;20837;-68
2022/10/17 10:16:20;;;;;;;4.07;2.83;;;28.00;86.70;;;;;;4992566;28;20458;-68
2022/10/17 10:18:46;;;;;;;9.83;3.00;;;28.40;85.90;;;;;;4990782;28;20456;-69
2022/10/17 10:21:15;;;;;;;7.83;2.70;;;28.30;85.50;;;;;;4985221;28;20414;-69
2022/10/17 10:24:02;;;;;;;3.10;2.63;;;28.20;85.90;;;;;;4991590;28;20529;-68
2022/10/17 10:26:39;;;;;;;3.20;3.00;;;28.40;85.20;;;;;;4993655;28;20439;-68
2022/10/17 10:29:30;;;;;;;4.30;2.50;;;28.40;84.50;;;;;;4994288;28;20414;-68
2022/10/17 10:32:26;;;;;;;2.47;2.27;;;28.40;84.20;;;;;;4994167;28;20430;-69
2022/10/17 10:34:56;;;;;;;4.93;3.20;;;29.00;83.20;;;;;;4990285;28;20431;-68
2022/10/17 10:37:25;;;;;;;4.90;2.93;;;30.60;79.10;;;;;;4993761;28;20418;-69
2022/10/17 10:39:55;;;;;;;2.70;2.50;;;30.80;76.80;;;;;;4993780;28;20464;-69
2022/10/17 10:42:27;;;;;;;3.07;2.77;;;31.10;74.60;;;;;;4994290;28;20885;-69
2022/10/17 10:44:56;;;;;;;5.00;4.60;;;31.80;71.50;;;;;;4988826;28;20450;-69
2022/10/17 10:47:30;;;;;;;4.80;3.20;;;32.10;69.40;;;;;;4994319;28;20546;-69
2022/10/17 10:50:17;;;;;;;6.23;2.80;;;31.90;67.00;;;;;;4979833;28;20562;-69
2022/10/17 10:52:49;;;;;;;2.80;2.60;;;31.80;66.80;;;;;;4974722;28;20929;-69
2022/10/17 10:55:29;;;;;;;2.37;2.27;;;32.40;66.40;;;;;;4985766;28;20448;-68
2022/10/17 10:58:02;;;;;;;3.30;3.10;;;31.50;65.10;;;;;;4993633;28;20758;-69
2022/10/17 11:00:31;;;;;;;2.30;2.20;;;31.90;64.50;;;;;;4993259;28;20431;-68
2022/10/17 11:03:18;;;;;;;8.23;3.00;;;32.20;63.60;;;;;;4976096;28;20480;-69
2022/10/17 11:05:55;;;;;;;3.87;2.40;;;33.40;62.50;;;;;;4991667;28;20458;-69
2022/10/17 11:08:29;;;;;;;2.93;2.73;;;33.70;59.00;;;;;;4974432;28;20470;-68
2022/10/17 11:11:05;;;;;;;3.47;3.27;;;33.70;57.20;;;;;;4974419;28;20897;-69
2022/10/17 11:13:39;;;;;;;3.40;3.00;;;33.30;55.60;;;;;;4973819;28;20461;-68
2022/10/17 11:16:18;;;;;;;3.20;2.80;;;33.50;56.00;;;;;;4978357;28;20423;-67
2022/10/17 11:19:11;;;;;;;3.47;3.10;;;35.30;55.90;;;;;;4974016;28;20411;-68
2022/10/17 11:21:57;;;;;;;3.90;2.10;;;37.10;51.10;;;;;;4982661;28;20789;-65
2022/10/17 11:24:28;;;;;;;3.53;2.90;;;38.50;47.10;;;;;;4980135;28;20577;-65
2022/10/17 11:26:59;;;;;;;3.67;3.37;;;39.50;44.90;;;;;;4983493;28;20459;-66
2022/10/17 11:29:29;;;;;;;3.60;2.47;;;39.20;43.50;;;;;;4973472;28;20423;-65
2022/10/17 11:31:59;;;;;;;3.50;2.13;;;39.10;42.00;;;;;;4980621;28;20450;-65
2022/10/17 11:34:28;;;;;;;4.20;3.90;;;38.90;42.00;;;;;;4981542;28;20542;-66
2022/10/17 11:36:58;;;;;;;5.93;3.00;;;38.60;41.70;;;;;;4993272;28;20414;-67
2022/10/17 11:39:38;;;;;;;6.53;2.80;;;37.10;42.30;;;;;;4992293;28;20916;-68
2022/10/17 11:42:09;;;;;;;2.90;2.70;;;36.50;42.20;;;;;;4993176;28;20415;-69
2022/10/17 11:44:37;;;;;;;4.07;2.50;;;36.80;42.60;;;;;;4988994;28;20441;-68
2022/10/17 11:47:13;;;;;;;2.40;2.20;;;36.40;42.40;;;;;;4993251;28;20425;-67
2022/10/17 11:49:46;;;;;;;2.70;2.30;;;36.30;42.60;;;;;;4992164;28;20418;-67
2022/10/17 11:52:42;;;;;;;6.80;2.80;;;36.10;42.40;;;;;;4987689;28;20434;-70
2022/10/17 11:55:21;;;;;;;6.00;3.80;;;36.60;42.60;;;;;;4986022;28;20458;-73
2022/10/17 11:57:49;;;;;;;5.47;3.50;;;36.50;42.80;;;;;;4990144;28;20510;-72
2022/10/17 12:00:21;;;;;;;4.60;2.83;;;37.80;42.20;;;;;;4992720;28;20422;-67
2022/10/17 12:03:10;;;;;;;2.43;2.23;;;38.40;41.40;;;;;;4990218;28;20521;-69
2022/10/17 12:05:45;;;;;;;2.80;2.50;;;38.80;40.40;;;;;;4988331;28;20853;-70
2022/10/17 12:08:38;;;;;;;3.77;2.87;;;38.60;39.90;;;;;;4991477;28;20422;-70
2022/10/17 12:11:36;;;;;;;4.63;3.03;;;37.20;40.40;;;;;;4992560;28;20422;-71
2022/10/17 12:14:02;;;;;;;7.33;3.87;;;37.30;41.90;;;;;;4985080;28;20462;-70
2022/10/17 12:16:27;;;;;;;6.70;3.20;;;37.20;41.10;;;;;;4992304;28;20437;-70
2022/10/17 12:19:21;;;;;;;4.77;2.60;;;37.70;40.80;;;;;;4992535;28;20410;-71
2022/10/17 12:21:59;;;;;;;3.90;2.50;;;37.10;39.80;;;;;;4973018;28;20198;-71
2022/10/17 12:24:38;;;;;;;2.57;2.37;;;35.80;41.20;;;;;;4980059;28;20418;-72
2022/10/17 12:27:22;;;;;;;3.70;2.47;;;36.40;41.50;;;;;;4983666;28;20492;-71
2022/10/17 12:29:47;;;;;;;3.00;2.70;;;36.30;41.50;;;;;;4992469;28;20561;-71
2022/10/17 12:32:14;;;;;;;4.07;2.73;;;36.50;41.30;;;;;;4991777;28;20513;-70
2022/10/17 12:34:50;;;;;;;3.43;3.13;;;35.70;42.30;;;;;;4989146;28;20214;-69
2022/10/17 12:37:41;;;;;;;2.60;2.40;;;36.50;41.80;;;;;;4992633;28;20556;-67
2022/10/17 12:40:34;;;;;;;4.23;2.60;;;36.30;41.40;;;;;;4985218;28;20419;-66
2022/10/17 12:43:34;;;;;;;4.60;2.40;;;36.60;41.90;;;;;;4992387;28;20485;-67
2022/10/17 12:46:01;;;;;;;3.40;3.10;;;36.40;41.60;;;;;;4981372;28;20443;-67
2022/10/17 12:48:35;;;;;;;11.83;3.03;;;37.80;41.10;;;;;;4972891;28;20455;-67
2022/10/17 12:51:09;;;;;;;3.23;2.80;;;37.50;40.20;;;;;;4984204;28;20572;-68
2022/10/17 12:53:45;;;;;;;5.17;2.70;;;36.60;39.80;;;;;;4989479;28;20446;-67
2022/10/17 12:56:13;;;;;;;3.60;2.53;;;37.00;40.00;;;;;;4991855;28;20568;-68
2022/10/17 12:58:44;;;;;;;3.33;2.20;;;37.30;39.70;;;;;;4981719;28;20426;-68
2022/10/17 13:01:17;;;;;;;2.70;2.50;;;36.50;40.30;;;;;;4972923;28;20471;-68
2022/10/17 13:03:46;;;;;;;3.93;2.50;;;36.80;40.20;;;;;;4973848;28;20446;-68
2022/10/17 13:06:20;;;;;;;3.70;1.90;;;37.10;39.80;;;;;;4991344;28;20427;-68
2022/10/17 13:08:51;;;;;;;3.13;2.40;;;37.90;38.60;;;;;;4992038;28;20449;-68